Airfield :
LOGIN :

Register | Disclaimer

   EN    FR    IT 

 










Legend :    VFR   Marginal VFR   IFR   Intensive IFR   Very Intensive IFR
Visi :
Ceiling :
>= 8 km
>= 3000ft
5 to 8 km
1000 to 3000 ft
1500m to 5 km
500 to 1000 ft
800 to 1500m
200 to 500 ft
< 800m
< 200 ft
Symbols :   Thunderstorms  Fog  Heavy snow  Heavy precipitations  Wind > 20 kt
SIGMETs :     Misc.  Thunderstorms  Icing  Turbulence  Mountain Waves  Volcanic Ashes






- Airport Elevation : 2077 ft
- IATA code : FMM


EDJA - Memmingen

CURRENT METAR :
  • 231020Z VRB02KT CAVOK 09/03 Q1027

EXPIRED METARs :
  • 230950Z VRB02KT CAVOK 09/03 Q1027
  • 230920Z VRB02KT CAVOK 09/03 Q1028
  • 230850Z 19005KT 160V220 9999 FEW052 07/03 Q1027
  • 230820Z 23003KT 200V260 9999 SCT052 07/02 Q1028
  • 230750Z 21005KT 9999 BKN050 06/03 Q1027

TAF TAF EDJA
Valid from the 23 at 09:00 until the 23 at 18:00 UTC


230800Z 2309/2318 VRB03KT 9999 SCT025
BECMG 2309/2311 05005KT



MET'MAP, your aeronautical weather chart ! - Copyright ORBIFLY December 2007 - Disclaimer

ORBIFLY MET'MAP TEAM :

Programming & Development : Alexandra Zaïnal
Concept & original design : Baudouin d'Aumeries
Assistance for programming : Marc-Olivier Méhu
Technical & hardware support : Manuel Goepfert

Contact : metmap@orbifly.com




SOURCES & CREDITS :

   NOAA